Seremban, Malaysia
Current Conditions -  °F | °C
As of 9:30 PM on Saturday 20 Dec 2014 (Local Time) from WMKK Reporting Station
Broken Clouds Broken Clouds  
Wind Chill: 79°   Ceiling: 28000
Heat Index: 82°   Visibility: 6mi
Dew Point: 75°   Wind: 3mph
Humidity: 89%   Direction: 30°NNE
Pressure: 29.8"   Gusts: NA
Location:  2.71°N, 101.95°E
Report Text: WMKK 201330Z 03003KT 9999 FEW017CB SCT140 BKN280 26/24 Q1009 NOSIG
Loading
Personal Weather Stations






























Interactive Weather Map New forecast layout! Learn more

10-Day Weather Forecast

Advertisements
Track Severe Weather on mobile